createdAt,value
2023-03-19T00:01:06.809Z,12.20
2023-03-19T00:08:42.048Z,10.70
2023-03-19T00:16:17.308Z,10.98
2023-03-19T00:23:52.208Z,10.48
2023-03-19T00:46:37.576Z,9.90
2023-03-19T00:54:12.859Z,9.40
2023-03-19T01:01:48.266Z,10.30
2023-03-19T01:09:22.995Z,9.50
2023-03-19T01:16:58.391Z,10.27
2023-03-19T01:24:33.160Z,10.52
2023-03-19T01:32:11.374Z,10.88
2023-03-19T01:39:45.522Z,11.35
2023-03-19T01:47:31.243Z,11.03
2023-03-19T01:55:07.495Z,12.32
2023-03-19T02:02:44.081Z,10.77
2023-03-19T02:10:18.834Z,10.80
2023-03-19T02:17:54.672Z,10.82
2023-03-19T02:25:34.061Z,10.82
2023-03-19T02:33:13.088Z,11.02
2023-03-19T02:40:52.906Z,11.15
2023-03-19T02:48:28.295Z,10.88
2023-03-19T02:56:02.250Z,11.07
2023-03-19T03:03:37.583Z,11.60
2023-03-19T03:11:11.871Z,11.73
2023-03-19T03:18:47.184Z,11.90
2023-03-19T03:26:21.146Z,10.90
2023-03-19T03:33:56.432Z,12.30
2023-03-19T03:41:30.408Z,12.50
2023-03-19T03:49:05.674Z,12.53
2023-03-19T03:56:39.634Z,12.82
2023-03-19T04:04:15.491Z,12.70
2023-03-19T04:11:51.493Z,12.55
2023-03-19T04:19:27.340Z,12.20
2023-03-19T04:27:01.606Z,12.88
2023-03-19T04:34:37.491Z,12.77
2023-03-19T04:42:11.761Z,15.98
2023-03-19T04:49:47.688Z,18.30
2023-03-19T04:57:21.439Z,18.20
2023-03-19T05:04:56.743Z,16.08
2023-03-19T05:12:30.810Z,16.70
2023-03-19T05:20:07.133Z,18.00
2023-03-19T05:27:41.829Z,18.35
2023-03-19T05:35:17.450Z,16.42
2023-03-19T05:42:52.052Z,15.52
2023-03-19T05:50:27.464Z,16.48
2023-03-19T05:58:01.703Z,16.65
2023-03-19T06:05:37.784Z,15.47
2023-03-19T06:21:04.649Z,17.35
2023-03-19T06:28:39.078Z,15.95
2023-03-19T06:36:14.333Z,15.68
2023-03-19T06:43:48.140Z,15.45
2023-03-19T06:51:23.362Z,15.93
2023-03-19T06:58:57.347Z,17.80
2023-03-19T07:06:33.648Z,18.37
2023-03-19T07:14:07.633Z,17.00
2023-03-19T07:21:43.166Z,20.60
2023-03-19T07:29:17.805Z,18.67
2023-03-19T07:36:53.070Z,16.42
2023-03-19T07:44:27.202Z,17.75
2023-03-19T07:59:54.184Z,17.42
2023-03-19T08:07:29.459Z,18.33
2023-03-19T08:15:03.360Z,18.98
2023-03-19T08:22:39.639Z,19.13
2023-03-19T08:30:14.579Z,23.48
2023-03-19T08:37:50.046Z,23.05
2023-03-19T08:45:24.211Z,23.65
2023-03-19T08:52:59.604Z,21.13
2023-03-19T09:00:33.956Z,18.95
2023-03-19T09:16:01.487Z,19.08
2023-03-19T09:23:36.790Z,19.20
2023-03-19T09:31:11.698Z,19.00
2023-03-19T09:38:47.743Z,18.77
2023-03-19T09:46:27.549Z,18.25
2023-03-19T09:54:05.483Z,17.63
2023-03-19T10:01:46.302Z,18.50
2023-03-19T10:09:36.480Z,16.27
2023-03-19T10:17:17.650Z,16.38
2023-03-19T10:24:56.298Z,15.40
2023-03-19T10:32:39.417Z,15.10
2023-03-19T10:40:22.696Z,13.02
2023-03-19T10:47:58.010Z,12.75
2023-03-19T10:55:34.156Z,11.70
2023-03-19T11:03:31.015Z,11.07
2023-03-19T11:11:06.377Z,10.88
2023-03-19T11:18:40.605Z,10.60
2023-03-19T11:26:20.531Z,10.80
2023-03-19T11:34:22.034Z,10.15
2023-03-19T11:42:13.362Z,9.63
2023-03-19T11:49:59.464Z,8.85
2023-03-19T11:57:56.745Z,10.50
2023-03-19T12:05:34.614Z,8.48
2023-03-19T12:13:22.963Z,8.40
2023-03-19T12:21:05.896Z,8.25
2023-03-19T12:36:50.640Z,8.32
2023-03-19T12:44:31.892Z,8.40
2023-03-19T12:52:15.213Z,9.32
2023-03-19T12:59:59.127Z,8.30
2023-03-19T13:07:41.744Z,7.53
2023-03-19T13:15:24.711Z,9.57
2023-03-19T13:31:04.733Z,6.65
2023-03-19T13:38:42.506Z,7.03
2023-03-19T13:46:39.092Z,6.47
2023-03-19T14:02:58.978Z,6.88
2023-03-19T14:10:34.305Z,6.70
2023-03-19T14:18:18.848Z,5.18
2023-03-19T14:26:00.133Z,6.15
2023-03-19T14:33:43.302Z,5.57
2023-03-19T14:41:21.498Z,6.07
2023-03-19T14:57:34.489Z,7.32
2023-03-19T15:05:10.757Z,6.25
2023-03-19T15:13:18.750Z,6.93
2023-03-19T15:20:55.586Z,7.75
2023-03-19T15:28:35.505Z,6.50
2023-03-19T15:36:18.010Z,9.02
2023-03-19T15:43:54.407Z,7.63
2023-03-19T15:59:24.700Z,8.13
2023-03-19T16:07:00.355Z,7.90
2023-03-19T16:14:45.661Z,7.82
2023-03-19T16:22:23.069Z,14.10
2023-03-19T16:30:00.607Z,10.38
2023-03-19T16:37:42.422Z,8.65
2023-03-19T16:45:26.339Z,11.13
2023-03-19T16:53:01.832Z,10.63
2023-03-19T17:00:37.194Z,11.02
2023-03-19T17:08:11.628Z,9.70
2023-03-19T17:15:48.119Z,9.47
2023-03-19T17:23:24.381Z,9.82
2023-03-19T17:31:00.229Z,9.43
2023-03-19T17:38:34.777Z,8.48
2023-03-19T17:46:13.411Z,8.93
2023-03-19T17:53:50.898Z,7.90
2023-03-19T18:01:29.176Z,8.35
2023-03-19T18:09:04.005Z,8.30
2023-03-19T18:16:39.437Z,8.40
2023-03-19T18:24:13.701Z,8.65
2023-03-19T18:31:51.158Z,10.73
2023-03-19T18:39:25.011Z,12.77
2023-03-19T18:47:00.295Z,13.23
2023-03-19T18:54:34.157Z,12.75
2023-03-19T19:02:22.875Z,10.65
2023-03-19T19:09:56.678Z,9.98
2023-03-19T19:17:35.023Z,10.20
2023-03-19T19:25:09.475Z,10.40
2023-03-19T19:48:31.553Z,8.70
2023-03-19T19:56:16.123Z,7.20
2023-03-19T20:03:52.157Z,6.03
2023-03-19T20:11:27.682Z,5.07
2023-03-19T20:19:02.942Z,3.80
2023-03-19T20:26:37.163Z,3.13
2023-03-19T20:34:22.434Z,3.40
2023-03-19T20:41:59.438Z,3.13
2023-03-19T20:49:34.757Z,2.92
2023-03-19T20:57:14.590Z,3.17
2023-03-19T21:04:50.107Z,2.72
2023-03-19T21:12:29.312Z,2.75
2023-03-19T21:20:05.066Z,3.05
2023-03-19T21:27:50.628Z,2.78
2023-03-19T21:35:27.241Z,3.50
2023-03-19T21:43:04.081Z,3.03
2023-03-19T21:50:40.124Z,3.00
2023-03-19T21:58:16.067Z,2.60
2023-03-19T22:05:52.283Z,2.85
2023-03-19T22:13:29.200Z,3.45
2023-03-19T22:21:04.366Z,3.53
2023-03-19T22:28:38.366Z,3.78
2023-03-19T22:36:15.043Z,4.32
2023-03-19T22:43:49.344Z,3.58
2023-03-19T22:51:27.628Z,3.60
2023-03-19T22:59:01.406Z,3.55
2023-03-19T23:06:36.744Z,3.50
2023-03-19T23:14:25.936Z,3.47
2023-03-19T23:22:04.045Z,3.40
2023-03-19T23:29:42.036Z,3.42
2023-03-19T23:37:17.377Z,3.17
2023-03-19T23:44:51.844Z,3.80
2023-03-19T23:52:27.157Z,3.60
